Time;durP1;ratioP1;P1;durP2;ratioP2;P2;SDS_P1;SDS_P2;PMS_P1;PMS_P2;Temp;Humidity;BMP_temperature;BMP_pressure;BME280_temperature;BME280_humidity;BME280_pressure;Samples;Min_cycle;Max_cycle;Signal;HPM_P1;HPM_P2
2022/06/14 00:01:42;;;;;;;7.88;1.85;;;;;;;23.61;33.20;98947.84;5010710;28;20425;-49
2022/06/14 00:04:08;;;;;;;11.18;2.17;;;;;;;23.48;33.21;98944.72;5012057;28;20491;-49
2022/06/14 00:06:34;;;;;;;9.90;1.38;;;;;;;23.36;33.35;98940.78;5011953;28;20021;-49
2022/06/14 00:09:01;;;;;;;7.28;1.75;;;;;;;23.28;33.51;98934.94;4994240;28;20025;-49
2022/06/14 00:11:30;;;;;;;6.03;1.60;;;;;;;23.35;33.38;98939.97;5011965;28;20467;-49
2022/06/14 00:13:58;;;;;;;11.68;2.08;;;;;;;23.36;33.28;98935.41;4994244;28;20516;-49
2022/06/14 00:16:26;;;;;;;8.07;2.03;;;;;;;23.51;33.09;98941.47;4994049;28;20033;-51
2022/06/14 00:18:52;;;;;;;11.65;2.03;;;;;;;23.68;32.80;98943.78;5011910;28;20053;-49
2022/06/14 00:21:18;;;;;;;6.25;2.03;;;;;;;23.70;33.10;98941.63;5011863;28;20058;-50
2022/06/14 00:23:44;;;;;;;10.80;2.00;;;;;;;23.60;33.07;98941.66;5011770;28;20049;-50
2022/06/14 00:26:11;;;;;;;4.38;1.33;;;;;;;23.55;32.96;98944.41;4994173;28;20530;-49
2022/06/14 00:28:39;;;;;;;6.35;1.60;;;;;;;23.51;33.33;98940.69;5011672;28;20121;-49
2022/06/14 00:31:08;;;;;;;15.20;2.55;;;;;;;23.50;33.50;98934.53;5011784;28;20022;-50
2022/06/14 00:33:34;;;;;;;10.50;1.33;;;;;;;23.50;33.63;98939.88;4994129;28;20113;-49
2022/06/14 00:36:03;;;;;;;5.90;1.60;;;;;;;23.47;33.11;98936.97;5011677;28;20088;-49
2022/06/14 00:38:29;;;;;;;16.48;2.15;;;;;;;23.33;33.53;98937.56;4994046;28;20041;-49
2022/06/14 00:40:57;;;;;;;13.05;2.00;;;;;;;23.22;33.83;98941.41;4994026;28;20029;-49
2022/06/14 00:43:25;;;;;;;8.23;1.52;;;;;;;23.12;33.68;98931.56;4994050;28;20408;-49
2022/06/14 00:45:51;;;;;;;10.52;1.70;;;;;;;22.94;34.45;98927.59;5011634;28;20026;-49
2022/06/14 00:48:25;;;;;;;9.00;1.63;;;;;;;22.68;34.71;98934.16;5011447;28;20088;-49
2022/06/14 00:51:12;;;;;;;7.60;1.80;;;;;;;22.36;35.49;98929.97;5011646;28;20037;-49
2022/06/14 00:54:03;;;;;;;6.38;1.30;;;;;;;22.17;35.99;98929.72;5011551;28;20257;-50
2022/06/14 00:56:45;;;;;;;7.20;1.38;;;;;;;21.94;36.18;98931.09;5011874;28;20045;-49
2022/06/14 00:59:19;;;;;;;14.20;2.35;;;;;;;21.70;36.68;98928.97;5015246;28;20037;-49
2022/06/14 01:01:48;;;;;;;15.52;2.25;;;;;;;21.68;36.80;98931.09;4997831;28;20396;-49
2022/06/14 01:04:18;;;;;;;16.02;2.92;;;;;;;21.76;36.98;98932.44;5015639;28;20038;-49
2022/06/14 01:06:58;;;;;;;11.18;2.08;;;;;;;21.82;36.97;98931.34;5015338;28;20018;-49
2022/06/14 01:09:52;;;;;;;13.43;2.10;;;;;;;21.80;36.92;98925.47;5014956;28;20037;-50
2022/06/14 01:12:21;;;;;;;7.80;1.83;;;;;;;21.73;37.18;98930.28;5014984;28;20030;-49
2022/06/14 01:15:00;;;;;;;5.65;1.08;;;;;;;21.59;37.57;98932.72;5014906;28;20022;-49
2022/06/14 01:17:26;;;;;;;8.57;2.10;;;;;;;21.64;37.33;98930.03;5014711;28;20068;-49
2022/06/14 01:19:52;;;;;;;10.60;1.67;;;;;;;21.82;37.00;98930.56;4997216;28;20492;-49
2022/06/14 01:22:18;;;;;;;13.05;2.30;;;;;;;22.03;36.36;98932.13;5014770;28;20038;-49
2022/06/14 01:24:44;;;;;;;7.78;1.70;;;;;;;22.07;36.47;98930.56;5014675;28;20395;-48
2022/06/14 01:27:15;;;;;;;13.75;2.35;;;;;;;22.18;36.86;98935.88;5014654;28;20080;-49
2022/06/14 01:29:45;;;;;;;10.35;2.22;;;;;;;22.27;36.64;98931.59;4996945;28;20112;-49
2022/06/14 01:32:14;;;;;;;11.43;1.90;;;;;;;22.29;36.81;98929.44;4996957;28;20029;-48
2022/06/14 01:34:56;;;;;;;10.18;1.80;;;;;;;22.24;37.45;98937.50;4996861;28;20021;-50
2022/06/14 01:37:22;;;;;;;7.38;1.67;;;;;;;21.96;37.17;98939.63;4980638;28;20499;-49
2022/06/14 01:39:49;;;;;;;7.43;1.33;;;;;;;21.74;37.13;98934.56;4996791;28;20029;-50
2022/06/14 01:42:36;;;;;;;14.10;2.00;;;;;;;21.47;38.71;98935.63;5014391;28;20440;-48
2022/06/14 01:45:22;;;;;;;15.02;2.20;;;;;;;21.14;40.60;98934.19;5014385;28;20484;-49
2022/06/14 01:48:02;;;;;;;5.78;1.70;;;;;;;20.74;40.89;98935.66;5014387;28;20030;-49
2022/06/14 01:53:36;;;;;;;4.43;1.40;;;;;;;19.94;43.47;98935.72;5014546;28;20033;-49
2022/06/14 01:56:20;;;;;;;10.40;2.05;;;;;;;19.78;44.49;98934.00;4996534;28;20032;-49
2022/06/14 01:59:02;;;;;;;9.52;2.58;;;;;;;19.53;45.33;98940.69;5014098;28;20462;-48
2022/06/14 02:01:42;;;;;;;6.45;1.70;;;;;;;19.18;46.20;98936.63;5014103;28;20480;-49
2022/06/14 02:04:39;;;;;;;15.63;2.78;;;;;;;19.02;46.52;98930.34;5014012;28;20104;-49
2022/06/14 02:07:24;;;;;;;10.18;2.25;;;;;;;18.87;47.15;98928.28;4996417;28;20093;-49
2022/06/14 02:10:10;;;;;;;7.32;2.10;;;;;;;18.82;47.04;98933.56;4995472;28;20037;-49
2022/06/14 02:12:51;;;;;;;8.48;1.63;;;;;;;18.83;46.39;98931.72;5014032;28;20121;-49
2022/06/14 02:15:25;;;;;;;12.90;2.13;;;;;;;18.80;47.08;98926.91;5013816;28;20029;-49
2022/06/14 02:18:12;;;;;;;4.13;1.65;;;;;;;18.75;45.84;98919.63;4992725;28;20042;-49
2022/06/14 02:20:53;;;;;;;7.95;1.98;;;;;;;18.72;45.46;98922.78;4994131;28;20030;-49
2022/06/14 02:23:20;;;;;;;9.77;2.03;;;;;;;18.83;45.34;98921.06;4994198;28;20418;-49
2022/06/14 02:25:56;;;;;;;12.93;2.10;;;;;;;19.16;45.00;98920.91;4994054;28;20022;-49
2022/06/14 02:28:33;;;;;;;12.77;1.58;;;;;;;19.44;44.13;98920.94;4993942;28;20038;-49
2022/06/14 02:31:17;;;;;;;17.35;2.33;;;;;;;19.49;43.90;98924.41;4993984;28;20031;-49
2022/06/14 02:33:51;;;;;;;8.85;2.08;;;;;;;19.43;44.23;98922.75;4993941;28;20107;-50
2022/06/14 02:36:34;;;;;;;7.47;1.48;;;;;;;19.46;44.50;98922.28;4992570;28;20031;-49
2022/06/14 02:39:10;;;;;;;7.28;2.10;;;;;;;19.32;44.83;98923.72;4993835;28;20555;-48
2022/06/14 02:41:43;;;;;;;7.22;1.67;;;;;;;19.10;45.83;98923.78;4993751;28;20026;-49
2022/06/14 02:44:22;;;;;;;6.25;1.60;;;;;;;18.90;45.33;98921.69;4992407;28;20058;-49
2022/06/14 02:46:48;;;;;;;9.20;1.58;;;;;;;18.87;45.13;98916.88;4993684;28;20062;-49
2022/06/14 02:49:34;;;;;;;8.93;2.13;;;;;;;18.95;44.62;98921.75;4993540;28;20128;-49
2022/06/14 02:52:04;;;;;;;9.98;2.47;;;;;;;18.98;45.11;98913.28;4993539;28;20033;-49
2022/06/14 02:54:35;;;;;;;9.38;1.85;;;;;;;18.94;45.01;98920.94;4993401;28;20034;-49
2022/06/14 02:57:24;;;;;;;6.00;1.60;;;;;;;18.91;45.67;98926.78;4993503;28;20030;-49
2022/06/14 03:00:07;;;;;;;9.65;1.98;;;;;;;18.85;45.81;98925.09;4992134;28;20407;-49
2022/06/14 03:02:42;;;;;;;8.85;1.83;;;;;;;18.87;46.38;98919.53;4992051;28;20744;-49
2022/06/14 03:05:19;;;;;;;11.38;2.10;;;;;;;18.79;46.91;98919.94;4992026;28;20101;-49
2022/06/14 03:08:25;;;;;;;6.32;1.90;;;;;;;18.66;47.28;98918.47;4993224;28;20030;-50
2022/06/14 03:11:20;;;;;;;5.32;1.73;;;;;;;18.47;47.49;98921.44;4992690;28;20049;-49
2022/06/14 03:14:06;;;;;;;10.57;1.90;;;;;;;18.34;47.45;98924.44;4974933;28;20072;-49
2022/06/14 03:16:34;;;;;;;7.15;1.77;;;;;;;18.36;47.62;98931.09;4994104;28;20405;-49
2022/06/14 03:19:18;;;;;;;8.52;1.70;;;;;;;18.27;48.70;98923.78;4995031;28;20028;-49
2022/06/14 03:21:55;;;;;;;9.90;2.05;;;;;;;18.11;48.79;98934.22;5012666;28;20100;-48
2022/06/14 03:24:57;;;;;;;10.55;2.55;;;;;;;17.97;49.73;98935.59;5012618;28;20041;-49
2022/06/14 03:27:35;;;;;;;6.65;1.83;;;;;;;17.69;50.41;98933.78;5012500;28;20084;-50
2022/06/14 03:30:15;;;;;;;6.78;1.58;;;;;;;17.54;49.97;98934.31;5012428;28;20025;-49
2022/06/14 03:32:49;;;;;;;10.25;2.17;;;;;;;17.53;49.92;98932.72;4994869;28;20034;-49
2022/06/14 03:35:26;;;;;;;5.72;1.50;;;;;;;17.57;49.49;98931.19;5012361;28;20033;-49
2022/06/14 03:37:56;;;;;;;15.55;2.20;;;;;;;17.66;49.25;98940.38;5012341;28;20454;-49
2022/06/14 03:40:24;;;;;;;8.57;1.55;;;;;;;17.90;48.19;98929.63;5012251;28;20025;-49
2022/06/14 03:42:50;;;;;;;7.55;1.60;;;;;;;18.10;47.66;98932.59;5012228;28;20025;-49
2022/06/14 03:45:25;;;;;;;6.22;1.48;;;;;;;18.29;47.25;98938.44;4994614;28;20089;-49
2022/06/14 03:47:51;;;;;;;11.02;1.63;;;;;;;18.39;46.93;98932.47;4994557;28;20034;-49
2022/06/14 03:50:55;;;;;;;6.75;1.20;;;;;;;18.36;46.79;98933.75;4994410;28;20503;-49
2022/06/14 03:54:03;;;;;;;9.02;1.50;;;;;;;18.27;47.08;98934.41;4990458;28;20045;-48
2022/06/14 03:56:34;;;;;;;9.80;1.52;;;;;;;18.29;46.96;98937.63;4983961;28;20515;-49
2022/06/14 03:59:40;;;;;;;8.07;2.08;;;;;;;18.26;47.58;98930.16;5012197;28;20034;-48
2022/06/14 04:02:14;;;;;;;7.20;1.80;;;;;;;18.27;47.30;98934.41;5012107;28;20058;-49
2022/06/14 04:04:58;;;;;;;7.30;1.50;;;;;;;18.31;47.07;98941.66;5012161;28;20057;-49
2022/06/14 04:07:52;;;;;;;5.00;1.60;;;;;;;18.46;46.83;98946.38;4994359;28;20273;-49
2022/06/14 04:10:38;;;;;;;8.93;1.52;;;;;;;18.72;46.23;98936.88;4994235;28;20032;-49
2022/06/14 04:13:28;;;;;;;6.75;2.00;;;;;;;18.93;45.70;98947.78;4994373;28;20034;-49
2022/06/14 04:16:04;;;;;;;4.97;1.50;;;;;;;18.92;45.08;98940.88;5011902;28;20042;-49
2022/06/14 04:18:57;;;;;;;8.05;1.90;;;;;;;18.81;45.61;98945.25;5011682;28;20054;-49
2022/06/14 04:21:45;;;;;;;9.00;2.38;;;;;;;18.62;47.25;98943.94;4994284;28;20117;-49
2022/06/14 04:24:19;;;;;;;5.05;2.08;;;;;;;18.94;47.31;98944.88;5011868;28;20030;-49
2022/06/14 04:27:14;;;;;;;7.85;2.05;;;;;;;19.81;45.60;98944.16;5011903;28;20558;-49
2022/06/14 04:29:47;;;;;;;5.80;1.60;;;;;;;20.62;43.53;98946.56;4994064;28;20492;-49
2022/06/14 04:32:31;;;;;;;16.55;2.80;;;;;;;20.95;42.78;98945.34;4995598;28;20038;-48
2022/06/14 04:35:04;;;;;;;5.53;2.35;;;;;;;20.88;42.63;98944.78;5015569;28;20030;-49
2022/06/14 04:37:55;;;;;;;12.93;2.47;;;;;;;20.82;43.04;98945.03;5015646;28;20514;-49
2022/06/14 04:40:29;;;;;;;5.32;2.17;;;;;;;20.87;43.06;98940.53;5015561;28;20072;-49
2022/06/14 04:43:04;;;;;;;9.70;2.40;;;;;;;21.20;42.24;98956.38;5015566;28;20506;-49
2022/06/14 04:45:43;;;;;;;8.43;2.72;;;;;;;21.66;41.64;98948.47;5015456;28;20026;-49
2022/06/14 04:48:24;;;;;;;11.23;3.22;;;;;;;22.45;39.87;98943.59;5015423;28;20029;-49
2022/06/14 04:51:04;;;;;;;12.25;8.10;;;;;;;23.17;38.23;98941.44;5015409;28;20026;-48
2022/06/14 04:53:47;;;;;;;10.60;3.10;;;;;;;23.79;36.95;98949.06;5015329;28;20038;-49
2022/06/14 04:56:20;;;;;;;16.10;3.28;;;;;;;24.39;35.71;98948.75;5015289;28;20021;-50
2022/06/14 04:59:11;;;;;;;13.00;2.92;;;;;;;25.16;34.71;98937.91;5015273;28;20206;-49
2022/06/14 05:01:43;;;;;;;7.70;2.13;;;;;;;25.96;33.40;98948.81;5015187;28;20495;-49
2022/06/14 05:04:40;;;;;;;6.15;2.28;;;;;;;27.28;31.32;98923.88;5015131;28;20088;-49
2022/06/14 05:07:29;;;;;;;7.95;2.35;;;;;;;27.64;30.05;98924.94;4985931;28;20038;-49
2022/06/14 05:10:19;;;;;;;5.10;1.80;;;;;;;28.38;29.54;98920.88;5014965;28;20036;-49
2022/06/14 05:12:57;;;;;;;15.77;2.20;;;;;;;28.63;28.66;98920.19;5015008;28;20126;-50
2022/06/14 05:15:41;;;;;;;10.80;2.28;;;;;;;29.26;27.97;98918.06;5015093;28;20470;-49
2022/06/14 05:18:19;;;;;;;10.13;2.42;;;;;;;29.80;27.08;98922.28;5014700;28;20054;-49
2022/06/14 05:20:57;;;;;;;8.35;2.88;;;;;;;30.44;26.53;98927.66;4997225;28;20049;-49
2022/06/14 05:23:37;;;;;;;10.10;2.45;;;;;;;31.03;25.46;98935.00;5014794;28;20037;-50
2022/06/14 05:26:27;;;;;;;15.02;1.90;;;;;;;31.59;24.74;98932.00;4997163;28;20120;-49
2022/06/14 05:29:03;;;;;;;24.67;2.55;;;;;;;32.29;23.68;98925.78;5014661;28;20053;-50
2022/06/14 05:31:28;;;;;;;14.07;2.75;;;;;;;32.12;23.92;98931.47;5014599;28;20037;-51
2022/06/14 05:34:01;;;;;;;20.90;2.80;;;;;;;32.08;23.59;98931.34;5014623;28;20026;-50
2022/06/14 05:36:35;;;;;;;16.65;2.47;;;;;;;32.66;23.01;98922.28;5014551;28;20021;-49
2022/06/14 05:39:23;;;;;;;19.08;2.45;;;;;;;33.28;22.76;98920.22;4997013;28;20030;-47
2022/06/14 05:41:56;;;;;;;10.95;2.50;;;;;;;33.89;21.63;98921.91;5014519;28;20403;-48
2022/06/14 05:44:38;;;;;;;10.20;2.50;;;;;;;33.66;21.90;98921.69;5013187;28;20045;-48
2022/06/14 05:47:12;;;;;;;7.18;1.80;;;;;;;32.94;22.17;98919.63;5014330;28;20510;-49
2022/06/14 05:49:44;;;;;;;12.27;2.72;;;;;;;33.02;22.42;98922.22;5014259;28;20038;-50
2022/06/14 05:52:19;;;;;;;18.35;2.53;;;;;;;33.62;21.72;98924.31;5014251;28;20026;-49
2022/06/14 05:55:03;;;;;;;18.65;3.75;;;;;;;33.69;21.79;98915.56;5014245;28;20137;-50
2022/06/14 05:57:57;;;;;;;10.32;2.67;;;;;;;33.49;21.63;98920.03;5014203;28;20026;-50
2022/06/14 06:00:35;;;;;;;11.95;2.40;;;;;;;32.84;22.58;98916.28;5014095;28;20030;-48
2022/06/14 06:03:12;;;;;;;19.50;2.17;;;;;;;33.46;22.63;98909.84;5014097;28;20029;-48
2022/06/14 06:05:47;;;;;;;8.50;2.10;;;;;;;33.76;21.91;98907.56;4996259;28;20038;-48
2022/06/14 06:08:43;;;;;;;28.00;2.78;;;;;;;34.17;21.09;98908.22;5014209;28;20389;-48
2022/06/14 06:11:49;;;;;;;12.20;2.53;;;;;;;35.31;20.51;98911.88;4996589;28;20551;-48
2022/06/14 06:14:20;;;;;;;14.85;2.65;;;;;;;35.18;20.05;98914.75;5013346;28;20034;-49
2022/06/14 06:19:48;;;;;;;13.95;2.33;;;;;;;35.86;19.72;98909.00;5013727;28;20026;-49
2022/06/14 06:22:31;;;;;;;11.95;2.47;;;;;;;35.92;19.69;98919.25;5013937;28;20061;-49
2022/06/14 06:25:07;;;;;;;9.55;2.00;;;;;;;36.25;19.25;98912.41;4996056;28;20038;-48
2022/06/14 06:27:42;;;;;;;9.68;2.40;;;;;;;36.60;19.12;98914.06;5013539;28;20112;-49
2022/06/14 06:30:15;;;;;;;17.73;2.58;;;;;;;36.36;19.22;98916.09;5013382;28;20037;-49
2022/06/14 06:32:42;;;;;;;7.90;2.20;;;;;;;36.49;18.90;98915.88;4995884;28;20492;-50
2022/06/14 06:35:09;;;;;;;11.32;2.13;;;;;;;36.75;18.66;98921.34;5013357;28;20076;-50
2022/06/14 06:37:41;;;;;;;10.95;2.63;;;;;;;36.84;18.47;98912.84;4995959;28;20037;-51
2022/06/14 06:40:15;;;;;;;7.75;1.80;;;;;;;37.22;18.66;98910.22;5013584;28;20404;-50
2022/06/14 06:42:46;;;;;;;8.30;2.20;;;;;;;37.32;18.44;98909.53;5013388;28;20499;-48
2022/06/14 06:45:21;;;;;;;8.40;2.13;;;;;;;37.45;18.40;98901.84;4995935;28;20117;-49
2022/06/14 06:48:19;;;;;;;17.33;2.97;;;;;;;37.77;17.94;98902.19;5013250;28;20081;-48
2022/06/14 06:50:49;;;;;;;12.85;2.47;;;;;;;38.06;17.48;98896.97;5013012;28;20842;-49
2022/06/14 06:53:21;;;;;;;6.72;2.50;;;;;;;38.44;17.70;98895.69;5013121;28;20037;-49
2022/06/14 06:56:05;;;;;;;12.57;2.65;;;;;;;39.06;17.03;98894.84;4995128;28;20076;-50
2022/06/14 06:58:55;;;;;;;13.80;2.35;;;;;;;39.68;16.22;98895.78;5013259;28;20483;-51
2022/06/14 07:01:23;;;;;;;8.23;2.45;;;;;;;39.50;16.32;98893.81;4995330;28;20121;-49
2022/06/14 07:04:00;;;;;;;9.95;2.08;;;;;;;39.48;16.53;98893.41;5012950;28;20096;-48
2022/06/14 07:06:38;;;;;;;13.27;2.55;;;;;;;39.52;16.09;98893.41;5012878;28;20049;-50
2022/06/14 07:09:14;;;;;;;15.45;2.75;;;;;;;39.84;15.93;98895.38;5012800;28;20033;-49
2022/06/14 07:11:46;;;;;;;6.82;1.95;;;;;;;39.82;16.20;98898.53;5012874;28;20052;-50
2022/06/14 07:14:52;;;;;;;12.65;2.88;;;;;;;39.42;16.67;98897.72;5012832;28;20026;-48
2022/06/14 07:17:27;;;;;;;12.05;2.28;;;;;;;38.63;17.12;98893.84;5012427;28;20054;-48
2022/06/14 07:20:00;;;;;;;5.57;2.28;;;;;;;38.65;17.37;98892.28;5012773;28;20042;-50
2022/06/14 07:22:41;;;;;;;6.63;2.33;;;;;;;38.66;17.12;98893.88;5013017;28;20447;-49
2022/06/14 07:25:25;;;;;;;9.13;2.50;;;;;;;38.35;17.60;98893.28;4994957;28;20402;-50
2022/06/14 07:28:39;;;;;;;9.13;2.50;;;;;;;37.91;17.91;98885.88;5012626;28;20037;-49
2022/06/14 07:31:11;;;;;;;12.23;3.00;;;;;;;37.60;17.98;98889.91;4989260;28;20272;-49
2022/06/14 07:33:37;;;;;;;9.30;2.33;;;;;;;37.65;18.19;98892.31;4994864;28;20402;-49
2022/06/14 07:36:13;;;;;;;6.63;2.20;;;;;;;37.44;18.47;98883.84;5012625;28;20025;-48
2022/06/14 07:39:17;;;;;;;7.75;2.25;;;;;;;37.69;18.38;98889.59;5012447;28;20033;-50
2022/06/14 07:42:05;;;;;;;10.73;2.75;;;;;;;37.85;18.26;98884.66;5002802;28;20046;-50
2022/06/14 07:45:03;;;;;;;6.65;2.42;;;;;;;38.61;17.76;98883.25;4994749;28;20120;-50
2022/06/14 07:47:50;;;;;;;7.70;2.55;;;;;;;39.16;16.91;98885.09;5007809;28;20034;-50
2022/06/14 07:50:22;;;;;;;4.88;2.20;;;;;;;39.60;16.84;98875.75;5012089;28;20026;-50
2022/06/14 07:53:18;;;;;;;7.40;2.75;;;;;;;40.17;16.45;98874.97;5012288;28;20033;-50
2022/06/14 07:55:50;;;;;;;9.85;2.50;;;;;;;40.83;15.52;98874.44;5008165;28;20117;-48
2022/06/14 07:58:24;;;;;;;6.03;2.75;;;;;;;40.86;15.46;98878.38;5012179;28;20407;-48
2022/06/14 08:01:09;;;;;;;13.02;2.65;;;;;;;41.24;15.15;98873.09;4994493;28;20034;-50
2022/06/14 08:03:58;;;;;;;15.50;3.50;;;;;;;41.46;15.04;98863.47;4994479;28;20053;-48
2022/06/14 08:06:47;;;;;;;6.00;2.00;;;;;;;41.67;14.83;98861.78;4993906;28;20030;-47
2022/06/14 08:09:31;;;;;;;8.63;1.92;;;;;;;42.23;14.60;98861.69;4994031;28;20038;-48
2022/06/14 08:12:00;;;;;;;7.45;2.03;;;;;;;42.65;14.25;98859.66;5011925;28;20026;-49
2022/06/14 08:14:34;;;;;;;8.25;2.47;;;;;;;42.94;14.17;98862.06;5011867;28;20025;-51
2022/06/14 08:17:01;;;;;;;19.00;3.15;;;;;;;43.23;13.58;98863.25;4990876;28;20050;-50
2022/06/14 08:19:55;;;;;;;7.32;2.17;;;;;;;43.67;13.67;98858.66;4992382;28;20025;-49
2022/06/14 08:22:27;;;;;;;;;;;;;;;44.08;12.95;98857.56;4992790;28;20030;-50
2022/06/14 08:25:00;;;;;;;9.02;2.00;;;;;;;43.82;13.01;98856.41;4992329;28;20367;-49
2022/06/14 08:27:36;;;;;;;7.78;2.17;;;;;;;44.08;12.80;98862.31;4991013;28;20093;-50
2022/06/14 08:30:09;;;;;;;6.75;1.83;;;;;;;44.08;12.86;98865.09;4992183;28;20030;-49
2022/06/14 08:33:08;;;;;;;10.02;2.00;;;;;;;44.41;12.18;98856.94;4992188;28;20030;-49
2022/06/14 08:35:51;;;;;;;7.85;1.90;;;;;;;44.59;12.34;98857.38;4992096;28;20066;-49
2022/06/14 08:38:41;;;;;;;11.35;2.25;;;;;;;44.33;11.98;98859.06;4990922;28;20037;-51
2022/06/14 08:41:33;;;;;;;10.77;1.98;;;;;;;44.44;12.10;98845.03;4990805;28;20030;-50
2022/06/14 08:44:06;;;;;;;14.30;2.97;;;;;;;43.64;12.63;98842.09;4990802;28;20511;-50
2022/06/14 08:46:41;;;;;;;;;;;;;;;43.81;12.87;98843.81;4992609;28;20026;-49
2022/06/14 08:49:42;;;;;;;8.10;1.90;;;;;;;43.53;12.51;98844.25;4991971;28;19921;-50
2022/06/14 08:52:48;;;;;;;7.88;1.90;;;;;;;43.34;12.71;98842.97;4992016;28;20102;-49
2022/06/14 08:55:41;;;;;;;17.05;3.03;;;;;;;43.71;12.85;98844.78;4992008;28;20042;-47
2022/06/14 08:58:24;;;;;;;5.13;1.63;;;;;;;43.22;12.64;98836.03;4992045;28;20054;-49
2022/06/14 09:01:18;;;;;;;6.47;2.10;;;;;;;42.88;12.80;98834.13;4976110;28;20053;-48
2022/06/14 09:04:15;;;;;;;6.28;1.55;;;;;;;42.95;13.18;98831.28;4964478;28;20580;-50
2022/06/14 09:07:14;;;;;;;7.28;2.20;;;;;;;42.91;13.15;98821.50;4991924;28;20018;-50
2022/06/14 09:09:58;;;;;;;6.30;1.80;;;;;;;42.96;12.77;98823.78;4991840;28;20085;-50
2022/06/14 09:12:33;;;;;;;9.52;2.42;;;;;;;43.09;12.79;98820.03;4990622;28;20034;-50
2022/06/14 09:15:21;;;;;;;6.97;1.67;;;;;;;44.06;12.75;98823.97;4991849;28;20036;-51
2022/06/14 09:18:25;;;;;;;5.43;1.98;;;;;;;43.94;12.41;98821.06;5003301;28;20065;-52
2022/06/14 09:21:09;;;;;;;6.65;1.75;;;;;;;43.55;12.88;98809.47;5015187;28;20108;-53
2022/06/14 09:23:59;;;;;;;16.38;2.20;;;;;;;42.85;13.55;98810.91;5014828;28;20065;-52
2022/06/14 09:26:55;;;;;;;8.02;1.80;;;;;;;43.05;13.44;98818.53;5014839;28;20106;-53
2022/06/14 09:30:15;;;;;;;8.05;2.00;;;;;;;43.03;13.24;98809.88;5014690;28;20030;-53
2022/06/14 09:35:45;;;;;;;7.70;1.75;;;;;;;43.36;13.16;98808.19;5014890;28;20076;-51
2022/06/14 09:38:29;;;;;;;8.55;1.88;;;;;;;43.95;12.54;98803.25;4983802;28;20062;-51
2022/06/14 09:41:14;;;;;;;7.18;1.70;;;;;;;44.06;12.90;98801.84;5014425;28;20407;-53
2022/06/14 09:43:46;;;;;;;5.75;1.60;;;;;;;42.95;13.03;98809.19;5014483;28;20121;-52
2022/06/14 09:46:49;;;;;;;4.25;1.50;;;;;;;42.78;13.30;98799.16;5014379;28;20026;-51
2022/06/14 09:49:33;;;;;;;7.70;1.63;;;;;;;42.56;13.65;98799.44;5014198;28;20057;-52
2022/06/14 09:52:36;;;;;;;4.13;1.10;;;;;;;42.18;13.85;98793.97;4996664;28;20116;-51
2022/06/14 09:55:35;;;;;;;7.28;1.42;;;;;;;42.94;13.28;98796.56;5014252;28;20029;-53
2022/06/14 09:58:02;;;;;;;7.57;1.55;;;;;;;43.66;12.55;98784.41;5014200;28;20028;-52
2022/06/14 10:00:37;;;;;;;4.32;1.45;;;;;;;44.05;12.36;98794.78;5014127;28;20053;-51
2022/06/14 10:03:18;;;;;;;5.40;2.38;;;;;;;44.24;12.77;98779.41;5014082;28;20037;-50
2022/06/14 10:06:19;;;;;;;9.07;2.00;;;;;;;44.20;12.51;98773.16;5014005;28;20048;-50
2022/06/14 10:08:58;;;;;;;7.63;1.75;;;;;;;44.23;12.22;98774.28;5013873;28;20026;-52
2022/06/14 10:11:36;;;;;;;6.00;1.52;;;;;;;44.52;12.30;98771.75;5013955;28;20387;-53
2022/06/14 10:14:26;;;;;;;6.95;1.40;;;;;;;44.42;12.37;98776.25;5013859;28;20030;-53
2022/06/14 10:17:07;;;;;;;7.60;1.70;;;;;;;43.62;12.86;98773.41;5013570;28;20108;-53
2022/06/14 10:20:04;;;;;;;15.65;4.43;;;;;;;43.40;13.40;98770.22;4996194;28;20018;-52
2022/06/14 10:22:47;;;;;;;2.67;1.25;;;;;;;43.72;12.88;98774.44;5013730;28;20040;-50
2022/06/14 10:25:29;;;;;;;7.63;1.17;;;;;;;44.05;12.08;98771.84;5013662;28;20100;-53
2022/06/14 10:28:14;;;;;;;3.80;1.40;;;;;;;44.38;11.83;98774.78;4995994;28;20180;-53
2022/06/14 10:30:52;;;;;;;6.38;1.40;;;;;;;44.00;11.84;98778.66;5012881;28;20018;-53
2022/06/14 10:33:43;;;;;;;6.13;1.50;;;;;;;43.64;12.17;98775.75;5013579;28;20033;-53
2022/06/14 10:36:27;;;;;;;5.53;1.60;;;;;;;43.23;12.18;98771.28;5013406;28;20153;-53
2022/06/14 10:39:14;;;;;;;2.95;1.30;;;;;;;43.32;12.34;98765.25;5013342;28;20105;-52
2022/06/14 10:41:43;;;;;;;5.72;1.42;;;;;;;43.41;12.05;98768.28;5013350;28;20025;-52
2022/06/14 10:44:32;;;;;;;5.60;1.30;;;;;;;43.54;12.14;98765.66;5013292;28;20438;-52
2022/06/14 10:47:06;;;;;;;5.65;1.60;;;;;;;43.49;11.73;98769.69;5013260;28;20040;-52
2022/06/14 10:50:02;;;;;;;3.83;1.50;;;;;;;43.40;11.72;98764.69;5013145;28;20112;-53
2022/06/14 10:53:04;;;;;;;6.32;1.52;;;;;;;43.26;11.81;98762.97;5013168;28;20030;-51
2022/06/14 10:56:14;;;;;;;4.93;1.70;;;;;;;43.05;12.18;98757.75;5013162;28;20022;-53
2022/06/14 10:59:17;;;;;;;6.90;1.38;;;;;;;42.93;12.27;98755.59;4933333;29;20074;-53
2022/06/14 11:02:11;;;;;;;7.30;1.90;;;;;;;43.42;12.59;98748.47;4933319;29;20118;-52
2022/06/14 11:04:49;;;;;;;8.38;1.38;;;;;;;43.45;11.91;98747.66;4917533;29;20082;-53
2022/06/14 11:07:33;;;;;;;8.80;1.52;;;;;;;43.64;12.01;98748.88;4917259;29;20043;-53
2022/06/14 11:10:35;;;;;;;5.00;1.52;;;;;;;43.80;11.99;98741.91;4933181;29;20039;-53
2022/06/14 11:13:12;;;;;;;7.57;1.90;;;;;;;43.64;12.13;98750.88;4933220;29;20123;-52
2022/06/14 11:16:00;;;;;;;6.13;1.70;;;;;;;43.65;12.16;98744.16;4933099;29;20187;-52
2022/06/14 11:19:30;;;;;;;8.93;1.92;;;;;;;43.54;12.40;98743.56;4932918;29;20047;-52
2022/06/14 11:22:04;;;;;;;5.05;1.48;;;;;;;43.34;11.79;98736.00;4876008;29;20456;-51
2022/06/14 11:24:59;;;;;;;4.10;1.40;;;;;;;43.45;11.81;98741.34;4876483;29;20040;-53
2022/06/14 11:27:43;;;;;;;5.55;1.50;;;;;;;42.84;11.51;98737.53;4876383;29;20041;-53
2022/06/14 11:30:18;;;;;;;10.38;2.42;;;;;;;43.03;12.41;98735.31;4860743;29;20036;-53
2022/06/14 11:33:23;;;;;;;5.20;2.05;;;;;;;43.03;12.64;98733.31;4876262;29;20045;-53
2022/06/14 11:35:58;;;;;;;4.40;1.63;;;;;;;43.10;12.42;98732.41;4946335;29;20035;-53
2022/06/14 11:38:53;;;;;;;5.97;1.60;;;;;;;43.00;13.02;98723.09;4951954;29;20413;-53
2022/06/14 11:41:24;;;;;;;18.40;2.15;;;;;;;42.61;13.39;98732.72;4934993;29;20475;-54
2022/06/14 11:44:12;;;;;;;4.95;1.70;;;;;;;42.79;13.00;98718.69;4951871;29;20031;-53
2022/06/14 11:47:16;;;;;;;14.32;2.10;;;;;;;42.33;13.25;98719.31;4951822;29;20042;-51
2022/06/14 11:50:16;;;;;;;6.20;1.60;;;;;;;42.52;13.06;98717.88;4949952;29;20146;-50
2022/06/14 11:53:16;;;;;;;4.78;1.50;;;;;;;42.54;12.74;98716.25;4894652;29;20522;-53
2022/06/14 11:56:05;;;;;;;3.67;1.20;;;;;;;41.99;13.10;98709.06;4894608;29;20039;-51
2022/06/14 11:58:39;;;;;;;10.23;1.80;;;;;;;41.28;13.78;98714.88;4925411;29;20040;-52
2022/06/14 12:01:23;;;;;;;9.23;1.50;;;;;;;41.39;13.43;98706.50;4932605;29;20115;-52
2022/06/14 12:04:10;;;;;;;5.20;1.48;;;;;;;41.52;14.03;98702.06;4932466;29;20032;-52
2022/06/14 12:07:02;;;;;;;11.27;2.60;;;;;;;41.32;14.10;98707.34;4916621;29;20039;-52
2022/06/14 12:10:00;;;;;;;9.77;2.22;;;;;;;41.48;14.17;98704.06;4932459;29;20039;-52
2022/06/14 12:13:11;;;;;;;7.43;1.60;;;;;;;41.85;14.00;98694.25;4932561;29;20466;-52
2022/06/14 12:15:55;;;;;;;8.48;1.70;;;;;;;42.05;14.15;98693.66;4930149;29;20557;-52
2022/06/14 12:18:24;;;;;;;5.82;1.60;;;;;;;42.18;13.72;98689.16;4932218;29;20044;-53
2022/06/14 12:21:04;;;;;;;10.68;2.10;;;;;;;42.36;13.65;98688.13;4932318;29;20119;-52
2022/06/14 12:23:37;;;;;;;9.85;1.60;;;;;;;42.54;13.14;98691.44;4932426;29;20530;-51
2022/06/14 12:26:35;;;;;;;9.77;2.00;;;;;;;42.22;13.76;98683.56;4932298;29;20092;-51
2022/06/14 12:29:13;;;;;;;7.20;1.80;;;;;;;41.62;14.26;98683.88;4994747;28;20084;-52
2022/06/14 12:32:00;;;;;;;9.35;1.67;;;;;;;41.08;14.75;98678.81;5011829;28;20128;-52
2022/06/14 12:34:35;;;;;;;7.70;1.70;;;;;;;41.18;14.60;98679.94;5011866;28;20030;-52
2022/06/14 12:37:18;;;;;;;10.48;1.65;;;;;;;41.05;14.72;98679.66;5011829;28;20029;-53
2022/06/14 12:40:13;;;;;;;12.90;2.30;;;;;;;40.78;14.90;98679.44;5011736;28;20069;-53
2022/06/14 12:43:31;;;;;;;6.05;1.58;;;;;;;40.79;14.91;98678.28;5011602;28;20082;-52
2022/06/14 12:46:25;;;;;;;6.15;1.63;;;;;;;40.74;15.09;98675.94;4979122;28;20057;-52
2022/06/14 12:48:56;;;;;;;8.98;2.17;;;;;;;40.07;15.53;98670.38;5007695;28;20173;-52